createdAt,value
2018-01-22T00:00:26.879Z,0
2018-01-22T00:01:37.114Z,0
2018-01-22T00:02:47.493Z,0
2018-01-22T00:03:57.783Z,0
2018-01-22T00:05:07.958Z,0
2018-01-22T00:06:18.172Z,0
2018-01-22T00:07:28.306Z,0
2018-01-22T00:08:38.466Z,0
2018-01-22T00:09:48.758Z,0
2018-01-22T00:10:59.021Z,0
2018-01-22T00:12:09.210Z,0
2018-01-22T00:13:19.427Z,0
2018-01-22T00:14:29.580Z,0
2018-01-22T00:15:39.956Z,0
2018-01-22T00:16:50.179Z,0
2018-01-22T00:18:00.376Z,0
2018-01-22T00:19:10.516Z,0
2018-01-22T00:20:20.678Z,0
2018-01-22T00:21:30.854Z,0
2018-01-22T00:22:40.948Z,0
2018-01-22T00:23:51.141Z,0
2018-01-22T00:25:01.268Z,0
2018-01-22T00:26:11.130Z,0
2018-01-22T00:27:21.262Z,0
2018-01-22T00:28:31.413Z,0
2018-01-22T00:29:41.623Z,0
2018-01-22T00:30:51.815Z,0
2018-01-22T00:32:01.998Z,0
2018-01-22T00:33:12.242Z,0
2018-01-22T00:34:22.529Z,0
2018-01-22T00:35:32.678Z,0
2018-01-22T00:36:42.829Z,0
2018-01-22T00:37:53.099Z,0
2018-01-22T00:39:03.283Z,0
2018-01-22T00:40:13.171Z,0
2018-01-22T00:41:23.486Z,0
2018-01-22T00:42:33.618Z,0
2018-01-22T00:43:43.794Z,0
2018-01-22T00:44:53.904Z,0
2018-01-22T00:46:04.023Z,0
2018-01-22T00:47:14.140Z,0
2018-01-22T00:48:24.322Z,0
2018-01-22T00:49:34.206Z,0
2018-01-22T00:50:44.368Z,0
2018-01-22T00:51:54.488Z,0
2018-01-22T00:53:04.649Z,0
2018-01-22T00:54:14.908Z,0
2018-01-22T00:55:25.045Z,0
2018-01-22T00:56:35.176Z,0
2018-01-22T00:57:45.068Z,0
2018-01-22T00:58:55.204Z,0
2018-01-22T01:00:05.350Z,0
2018-01-22T01:01:15.543Z,0
2018-01-22T01:02:25.685Z,0
2018-01-22T01:03:35.825Z,0
2018-01-22T01:04:45.934Z,0
2018-01-22T01:05:56.058Z,0
2018-01-22T01:07:06.256Z,0
2018-01-22T01:08:16.443Z,0
2018-01-22T01:09:26.695Z,0
2018-01-22T01:10:36.853Z,0
2018-01-22T01:11:47.062Z,0
2018-01-22T01:12:57.253Z,0
2018-01-22T01:14:07.180Z,0
2018-01-22T01:15:17.312Z,0
2018-01-22T01:16:27.550Z,0
2018-01-22T01:17:37.772Z,0
2018-01-22T01:18:48.001Z,0
2018-01-22T01:19:58.175Z,0
2018-01-22T01:21:08.389Z,0
2018-01-22T01:22:18.628Z,0
2018-01-22T01:23:28.761Z,0
2018-01-22T01:24:38.670Z,0
2018-01-22T01:25:48.814Z,0
2018-01-22T01:26:59.032Z,0
2018-01-22T01:28:09.190Z,0
2018-01-22T01:29:19.374Z,0
2018-01-22T01:30:29.581Z,0
2018-01-22T01:31:39.710Z,0
2018-01-22T01:32:49.832Z,0
2018-01-22T01:33:59.951Z,0
2018-01-22T01:35:10.122Z,0
2018-01-22T01:36:20.047Z,0
2018-01-22T01:37:30.182Z,0
2018-01-22T01:38:40.386Z,0
2018-01-22T01:39:50.525Z,0
2018-01-22T01:41:00.681Z,0
2018-01-22T01:42:10.806Z,0
2018-01-22T01:43:20.928Z,0
2018-01-22T01:44:31.065Z,0
2018-01-22T01:45:41.187Z,0
2018-01-22T01:46:51.346Z,0
2018-01-22T01:48:01.505Z,0
2018-01-22T01:49:11.622Z,0
2018-01-22T01:50:21.751Z,0
2018-01-22T01:51:31.906Z,0
2018-01-22T01:52:42.027Z,0
2018-01-22T01:53:52.132Z,0
2018-01-22T01:55:02.255Z,0
2018-01-22T01:56:12.120Z,0
2018-01-22T01:57:22.142Z,0
2018-01-22T01:58:32.258Z,0
2018-01-22T01:59:42.391Z,0
2018-01-22T02:00:52.628Z,0
2018-01-22T02:02:02.858Z,0
2018-01-22T02:03:12.340Z,0
2018-01-22T02:04:22.236Z,0
2018-01-22T02:05:32.389Z,0
2018-01-22T02:06:42.502Z,0
2018-01-22T02:07:52.658Z,0
2018-01-22T02:09:02.786Z,0
2018-01-22T02:10:12.926Z,0
2018-01-22T02:11:23.083Z,0
2018-01-22T02:12:32.868Z,0
2018-01-22T02:13:43.005Z,0
2018-01-22T02:14:53.246Z,0
2018-01-22T02:16:03.422Z,0
2018-01-22T02:17:13.549Z,0
2018-01-22T02:18:23.665Z,0
2018-01-22T02:19:33.832Z,0
2018-01-22T02:20:43.939Z,0
2018-01-22T02:21:54.124Z,0
2018-01-22T02:23:04.364Z,0
2018-01-22T02:24:14.502Z,0
2018-01-22T02:25:24.659Z,0
2018-01-22T02:26:34.767Z,0
2018-01-22T02:27:44.914Z,0
2018-01-22T02:28:55.028Z,0
2018-01-22T02:30:05.263Z,0
2018-01-22T02:31:15.474Z,0
2018-01-22T02:32:25.571Z,0
2018-01-22T02:33:35.428Z,0
2018-01-22T02:34:45.572Z,0
2018-01-22T02:35:56.858Z,0
2018-01-22T02:37:07.010Z,0
2018-01-22T02:38:17.217Z,0
2018-01-22T02:39:27.394Z,0
2018-01-22T02:40:37.620Z,0
2018-01-22T02:41:47.431Z,0
2018-01-22T02:42:57.550Z,0
2018-01-22T02:44:07.818Z,0
2018-01-22T02:45:17.984Z,0
2018-01-22T02:46:28.133Z,0
2018-01-22T02:47:38.263Z,0
2018-01-22T02:48:48.387Z,0
2018-01-22T02:49:58.511Z,0
2018-01-22T02:51:08.642Z,0
2018-01-22T02:52:18.931Z,0
2018-01-22T02:53:29.087Z,0
2018-01-22T02:54:39.336Z,0
2018-01-22T02:55:50.421Z,0
2018-01-22T02:57:00.538Z,0
2018-01-22T02:58:10.678Z,0
2018-01-22T02:59:20.548Z,0
2018-01-22T03:00:30.659Z,0
2018-01-22T03:01:40.766Z,0
2018-01-22T03:02:50.977Z,0
2018-01-22T03:04:01.149Z,0
2018-01-22T03:05:11.328Z,0
2018-01-22T03:06:21.450Z,0
2018-01-22T03:07:31.547Z,0
2018-01-22T03:08:41.650Z,0
2018-01-22T03:09:51.752Z,0
2018-01-22T03:11:01.898Z,0
2018-01-22T03:12:12.100Z,0
2018-01-22T03:13:22.212Z,0
2018-01-22T03:14:32.343Z,0
2018-01-22T03:15:42.493Z,0
2018-01-22T03:16:52.668Z,0
2018-01-22T03:18:02.938Z,0
2018-01-22T03:19:13.109Z,0
2018-01-22T03:20:23.267Z,0
2018-01-22T03:21:33.442Z,0
2018-01-22T03:22:43.715Z,0
2018-01-22T03:23:53.862Z,0
2018-01-22T03:25:03.988Z,0
2018-01-22T03:26:14.101Z,0
2018-01-22T03:27:24.229Z,0
2018-01-22T03:28:34.093Z,0
2018-01-22T03:29:44.222Z,0
2018-01-22T03:30:54.357Z,0
2018-01-22T03:32:04.509Z,0
2018-01-22T03:33:14.697Z,0
2018-01-22T03:34:25.861Z,0
2018-01-22T03:35:36.111Z,0
2018-01-22T03:36:46.398Z,0
2018-01-22T03:37:56.599Z,0
2018-01-22T03:39:06.790Z,0
2018-01-22T03:40:16.612Z,0
2018-01-22T03:41:26.765Z,0
2018-01-22T03:42:36.895Z,0
2018-01-22T03:43:47.663Z,0
2018-01-22T03:44:57.797Z,0
2018-01-22T03:46:07.886Z,0
2018-01-22T03:47:18.035Z,0
2018-01-22T03:48:28.141Z,0
2018-01-22T03:49:38.276Z,0
2018-01-22T03:50:48.374Z,0
2018-01-22T03:51:58.407Z,0
2018-01-22T03:53:08.625Z,0
2018-01-22T03:54:18.743Z,0
2018-01-22T03:55:28.971Z,0
2018-01-22T03:56:39.184Z,0
2018-01-22T03:57:49.320Z,0
2018-01-22T03:58:59.441Z,0
2018-01-22T04:00:09.557Z,0
2018-01-22T04:01:19.669Z,0
2018-01-22T04:02:29.762Z,0
2018-01-22T04:03:39.941Z,0
2018-01-22T04:04:50.104Z,0
2018-01-22T04:06:00.193Z,0
2018-01-22T04:07:10.318Z,0
2018-01-22T04:08:20.499Z,0
2018-01-22T04:09:30.619Z,0
2018-01-22T04:10:40.753Z,0
2018-01-22T04:11:50.857Z,0
2018-01-22T04:13:00.957Z,0
2018-01-22T04:14:11.112Z,0
2018-01-22T04:15:21.250Z,0
2018-01-22T04:16:31.400Z,0
2018-01-22T04:17:41.683Z,0
2018-01-22T04:18:51.633Z,0
2018-01-22T04:20:01.746Z,0
2018-01-22T04:21:11.860Z,0
2018-01-22T04:22:22.080Z,0
2018-01-22T04:23:31.898Z,0
2018-01-22T04:24:42.064Z,0
2018-01-22T04:25:52.307Z,0
2018-01-22T04:27:02.419Z,0
2018-01-22T04:28:12.543Z,0
2018-01-22T04:29:22.684Z,0
2018-01-22T04:30:32.812Z,0
2018-01-22T04:31:42.924Z,0
2018-01-22T04:32:53.168Z,0
2018-01-22T04:34:03.372Z,0
2018-01-22T04:35:13.521Z,0
2018-01-22T04:36:23.688Z,0
2018-01-22T04:37:33.800Z,0
2018-01-22T04:38:43.963Z,0
2018-01-22T04:39:54.103Z,0
2018-01-22T04:41:04.230Z,0
2018-01-22T04:42:14.342Z,0
2018-01-22T04:43:24.480Z,0
2018-01-22T04:44:34.614Z,0
2018-01-22T04:45:44.728Z,0
2018-01-22T04:46:54.872Z,0
2018-01-22T04:48:05.171Z,0
2018-01-22T04:49:15.288Z,0
2018-01-22T04:50:25.563Z,0
2018-01-22T04:51:35.664Z,0
2018-01-22T04:52:45.852Z,0
2018-01-22T04:53:56.058Z,0
2018-01-22T04:55:06.169Z,0
2018-01-22T04:56:16.045Z,0
2018-01-22T04:57:26.182Z,0
2018-01-22T04:58:37.256Z,0
2018-01-22T04:59:47.371Z,0
2018-01-22T05:00:57.509Z,0
2018-01-22T05:02:07.719Z,0
2018-01-22T05:03:17.681Z,0
2018-01-22T05:04:27.794Z,0
2018-01-22T05:05:37.936Z,0
2018-01-22T05:06:48.094Z,0
2018-01-22T05:07:58.258Z,0
2018-01-22T05:09:09.364Z,0
2018-01-22T05:10:19.493Z,0
2018-01-22T05:11:29.349Z,0
2018-01-22T05:12:39.307Z,0
2018-01-22T05:13:49.175Z,0
2018-01-22T05:14:59.311Z,0
2018-01-22T05:16:09.424Z,0
2018-01-22T05:17:19.584Z,0
2018-01-22T05:18:29.866Z,0
2018-01-22T05:19:40.067Z,0
2018-01-22T05:20:50.227Z,0
2018-01-22T05:22:00.346Z,0
2018-01-22T05:23:10.469Z,0
2018-01-22T05:24:20.622Z,0
2018-01-22T05:25:30.854Z,0
2018-01-22T05:26:40.989Z,0
2018-01-22T05:27:51.221Z,0
2018-01-22T05:29:01.372Z,0
2018-01-22T05:30:11.579Z,0
2018-01-22T05:31:21.813Z,0
2018-01-22T05:32:31.983Z,0
2018-01-22T05:33:42.158Z,0
2018-01-22T05:34:52.404Z,0
2018-01-22T05:36:02.520Z,0
2018-01-22T05:37:12.681Z,0
2018-01-22T05:38:22.621Z,0
2018-01-22T05:39:33.015Z,0
2018-01-22T05:40:43.168Z,0
2018-01-22T05:41:53.322Z,0
2018-01-22T05:43:03.555Z,0
2018-01-22T05:44:13.733Z,0
2018-01-22T05:45:23.925Z,0
2018-01-22T05:46:34.070Z,0
2018-01-22T05:47:44.177Z,0
2018-01-22T05:48:54.329Z,0
2018-01-22T05:50:04.476Z,0
2018-01-22T05:51:14.608Z,0
2018-01-22T05:52:24.869Z,0
2018-01-22T05:53:35.072Z,0
2018-01-22T05:54:45.224Z,0
2018-01-22T05:55:55.321Z,0
2018-01-22T05:57:05.486Z,0
2018-01-22T05:58:16.634Z,0
2018-01-22T05:59:26.751Z,0
2018-01-22T06:00:36.611Z,0
2018-01-22T06:01:46.750Z,0
2018-01-22T06:02:56.850Z,0
2018-01-22T06:04:07.010Z,0
2018-01-22T06:05:17.119Z,0
2018-01-22T06:06:27.489Z,0
2018-01-22T06:07:37.705Z,0
2018-01-22T06:08:47.927Z,0
2018-01-22T06:09:58.142Z,0
2018-01-22T06:11:07.991Z,0
2018-01-22T06:12:18.140Z,0
2018-01-22T06:13:29.243Z,0
2018-01-22T06:14:39.478Z,0
2018-01-22T06:15:49.709Z,0
2018-01-22T06:16:59.614Z,0
2018-01-22T06:18:09.756Z,0
2018-01-22T06:19:19.875Z,0
2018-01-22T06:20:30.060Z,0
2018-01-22T06:21:40.294Z,0
2018-01-22T06:22:50.450Z,0
2018-01-22T06:24:00.401Z,0
2018-01-22T06:25:10.630Z,0
2018-01-22T06:26:20.916Z,0
2018-01-22T06:27:31.025Z,0
2018-01-22T06:28:41.206Z,0
2018-01-22T06:29:51.423Z,0
2018-01-22T06:31:01.300Z,0
2018-01-22T06:32:11.474Z,0
2018-01-22T06:33:21.654Z,0
2018-01-22T06:34:31.792Z,0
2018-01-22T06:35:41.999Z,4
2018-01-22T06:36:52.232Z,0
2018-01-22T06:38:02.366Z,4
2018-01-22T06:39:12.234Z,4
2018-01-22T06:40:22.493Z,4
2018-01-22T06:41:32.677Z,8
2018-01-22T06:42:42.901Z,4
2018-01-22T06:43:53.135Z,4
2018-01-22T06:45:03.390Z,8
2018-01-22T06:46:13.642Z,12
2018-01-22T06:47:23.876Z,8
2018-01-22T06:48:33.990Z,16
2018-01-22T06:49:44.221Z,16
2018-01-22T06:50:54.104Z,20
2018-01-22T06:52:04.213Z,24
2018-01-22T06:53:14.374Z,28
2018-01-22T06:54:25.469Z,28
2018-01-22T06:55:35.828Z,32
2018-01-22T06:56:46.067Z,32
2018-01-22T06:57:56.282Z,40
2018-01-22T06:59:06.467Z,40
2018-01-22T07:00:16.625Z,44
2018-01-22T07:01:26.799Z,44
2018-01-22T07:02:36.895Z,52
2018-01-22T07:03:46.951Z,60
2018-01-22T07:04:57.165Z,64
2018-01-22T07:06:07.390Z,72
2018-01-22T07:07:17.507Z,80
2018-01-22T07:08:27.700Z,88
2018-01-22T07:09:38.025Z,96
2018-01-22T07:10:48.230Z,112
2018-01-22T07:11:58.392Z,116
2018-01-22T07:13:08.507Z,124
2018-01-22T07:14:18.629Z,132
2018-01-22T07:15:28.745Z,136
2018-01-22T07:16:38.906Z,144
2018-01-22T07:17:49.086Z,156
2018-01-22T07:18:59.263Z,172
2018-01-22T07:20:09.479Z,192
2018-01-22T07:21:19.434Z,212
2018-01-22T07:22:29.554Z,228
2018-01-22T07:23:39.732Z,244
2018-01-22T07:24:49.925Z,256
2018-01-22T07:26:00.081Z,268
2018-01-22T07:27:10.241Z,284
2018-01-22T07:28:20.385Z,304
2018-01-22T07:29:30.540Z,324
2018-01-22T07:30:40.668Z,348
2018-01-22T07:31:50.811Z,364
2018-01-22T07:33:00.911Z,380
2018-01-22T07:34:11.060Z,404
2018-01-22T07:35:21.202Z,440
2018-01-22T07:36:31.309Z,472
2018-01-22T07:37:41.429Z,480
2018-01-22T07:38:51.342Z,484
2018-01-22T07:40:01.522Z,508
2018-01-22T07:41:11.662Z,568
2018-01-22T07:42:21.836Z,668
2018-01-22T07:43:32.011Z,788
2018-01-22T07:44:42.236Z,876
2018-01-22T07:45:52.427Z,904
2018-01-22T07:47:02.565Z,904
2018-01-22T07:48:12.725Z,908
2018-01-22T07:49:22.850Z,904
2018-01-22T07:50:32.706Z,872
2018-01-22T07:51:42.833Z,852
2018-01-22T07:52:52.951Z,844
2018-01-22T07:54:03.143Z,852
2018-01-22T07:55:13.270Z,856
2018-01-22T07:56:23.496Z,828
2018-01-22T07:57:33.641Z,744
2018-01-22T07:58:43.795Z,660
2018-01-22T07:59:53.689Z,628
2018-01-22T08:01:03.889Z,648
2018-01-22T08:02:14.077Z,696
2018-01-22T08:03:24.200Z,736
2018-01-22T08:04:34.307Z,740
2018-01-22T08:05:44.431Z,748
2018-01-22T08:06:54.553Z,784
2018-01-22T08:08:04.322Z,848
2018-01-22T08:09:14.190Z,916
2018-01-22T08:10:24.293Z,984
2018-01-22T08:11:34.393Z,1080
2018-01-22T08:12:45.602Z,1128
2018-01-22T08:13:55.702Z,1108
2018-01-22T08:15:05.607Z,1116
2018-01-22T08:16:15.805Z,1152
2018-01-22T08:17:26.093Z,1176
2018-01-22T08:18:36.228Z,1188
2018-01-22T08:19:46.407Z,1220
2018-01-22T08:20:56.564Z,1300
2018-01-22T08:22:06.667Z,1396
2018-01-22T08:23:16.491Z,1456
2018-01-22T08:24:26.641Z,1456
2018-01-22T08:25:36.625Z,1432
2018-01-22T08:26:46.860Z,1428
2018-01-22T08:27:58.017Z,1392
2018-01-22T08:29:07.542Z,1336
2018-01-22T08:30:17.691Z,1360
2018-01-22T08:31:27.795Z,1244
2018-01-22T08:32:37.972Z,1028
2018-01-22T08:33:48.134Z,888
2018-01-22T08:34:58.380Z,872
2018-01-22T08:36:08.535Z,956
2018-01-22T08:37:18.694Z,1108
2018-01-22T08:38:28.808Z,1236
2018-01-22T08:39:38.937Z,1324
2018-01-22T08:40:49.096Z,1380
2018-01-22T08:41:59.339Z,1420
2018-01-22T08:43:09.184Z,1468
2018-01-22T08:44:19.326Z,1528
2018-01-22T08:45:29.461Z,1528
2018-01-22T08:46:39.614Z,1520
2018-01-22T08:47:49.460Z,1620
2018-01-22T08:48:59.648Z,1908
2018-01-22T08:50:09.894Z,2352
2018-01-22T08:51:20.053Z,2796
2018-01-22T08:52:30.317Z,3268
2018-01-22T08:53:40.490Z,3596
2018-01-22T08:54:50.659Z,3752
2018-01-22T08:56:00.653Z,3832
2018-01-22T08:57:10.786Z,4004
2018-01-22T08:58:21.889Z,4176
2018-01-22T08:59:32.078Z,4264
2018-01-22T09:00:42.297Z,4220
2018-01-22T09:01:52.496Z,3952
2018-01-22T09:03:02.680Z,3584
2018-01-22T09:04:12.828Z,3256
2018-01-22T09:05:22.941Z,3004
2018-01-22T09:06:33.071Z,2848
2018-01-22T09:07:43.227Z,2872
2018-01-22T09:08:53.358Z,2948
2018-01-22T09:10:03.116Z,2860
2018-01-22T09:11:13.255Z,2656
2018-01-22T09:12:23.652Z,2652
2018-01-22T09:13:33.784Z,2576
2018-01-22T09:14:44.004Z,2504
2018-01-22T09:15:54.198Z,2528
2018-01-22T09:17:04.404Z,2616
2018-01-22T09:18:14.559Z,2764
2018-01-22T09:19:24.694Z,2952
2018-01-22T09:20:34.811Z,3208
2018-01-22T09:21:44.956Z,3408
2018-01-22T09:22:55.066Z,3484
2018-01-22T09:24:05.225Z,3488
2018-01-22T09:25:15.354Z,3568
2018-01-22T09:26:25.571Z,3696
2018-01-22T09:27:35.684Z,3756
2018-01-22T09:28:45.809Z,3720
2018-01-22T09:29:56.103Z,3644
2018-01-22T09:31:06.249Z,3548
2018-01-22T09:32:16.391Z,3484
2018-01-22T09:33:26.535Z,3512
2018-01-22T09:34:36.743Z,3588
2018-01-22T09:35:46.617Z,3628
2018-01-22T09:36:56.478Z,3528
2018-01-22T09:38:06.610Z,3292
2018-01-22T09:39:16.749Z,3036
2018-01-22T09:40:26.948Z,2848
2018-01-22T09:41:37.157Z,2796
2018-01-22T09:42:47.337Z,2848
2018-01-22T09:43:57.617Z,2984
2018-01-22T09:45:07.762Z,3120
2018-01-22T09:46:18.012Z,3212
2018-01-22T09:47:28.229Z,3292
2018-01-22T09:48:38.429Z,3416
2018-01-22T09:49:48.652Z,3564
2018-01-22T09:50:58.783Z,3768
2018-01-22T09:52:08.946Z,3936
2018-01-22T09:53:19.124Z,4020
2018-01-22T09:54:29.252Z,4056
2018-01-22T09:55:39.382Z,4076
2018-01-22T09:56:49.596Z,4112
2018-01-22T09:57:59.710Z,4228
2018-01-22T09:59:09.858Z,4316
2018-01-22T10:00:19.981Z,4380
2018-01-22T10:01:30.113Z,4436
2018-01-22T10:02:40.230Z,4440
2018-01-22T10:03:50.364Z,4424
2018-01-22T10:05:00.561Z,4412
2018-01-22T10:06:10.794Z,4348
2018-01-22T10:07:20.942Z,4220
2018-01-22T10:08:31.093Z,3992
2018-01-22T10:09:41.438Z,3820
2018-01-22T10:10:51.706Z,3836
2018-01-22T10:12:01.616Z,4040
2018-01-22T10:13:11.780Z,4304
2018-01-22T10:14:21.961Z,4492
2018-01-22T10:15:32.086Z,4364
2018-01-22T10:16:42.224Z,3996
2018-01-22T10:17:52.492Z,3636
2018-01-22T10:19:02.734Z,3496
2018-01-22T10:20:12.916Z,3560
2018-01-22T10:21:23.278Z,3708
2018-01-22T10:22:33.391Z,3732
2018-01-22T10:23:43.512Z,3656
2018-01-22T10:24:53.892Z,3556
2018-01-22T10:26:04.108Z,3508
2018-01-22T10:27:14.359Z,3724
2018-01-22T10:28:24.527Z,4044
2018-01-22T10:29:34.719Z,4460
2018-01-22T10:30:46.008Z,4500
2018-01-22T10:31:56.176Z,4336
2018-01-22T10:33:06.328Z,4364
2018-01-22T10:34:16.571Z,4600
2018-01-22T10:35:26.723Z,5152
2018-01-22T10:36:36.867Z,5672
2018-01-22T10:37:47.054Z,5996
2018-01-22T10:38:57.186Z,6620
2018-01-22T10:40:07.366Z,7552
2018-01-22T10:41:17.515Z,7880
2018-01-22T10:42:27.755Z,7628
2018-01-22T10:43:37.918Z,6580
2018-01-22T10:44:48.117Z,5228
2018-01-22T10:45:58.384Z,4256
2018-01-22T10:47:08.615Z,3440
2018-01-22T10:48:18.827Z,3028
2018-01-22T10:49:29.109Z,2884
2018-01-22T10:50:39.386Z,2828
2018-01-22T10:51:49.525Z,2880
2018-01-22T10:52:59.804Z,2984
2018-01-22T10:54:10.002Z,3024
2018-01-22T10:55:20.225Z,2992
2018-01-22T10:56:30.419Z,3120
2018-01-22T10:57:40.590Z,3236
2018-01-22T10:58:50.749Z,3748
2018-01-22T11:00:00.985Z,4480
2018-01-22T11:01:10.759Z,5300
2018-01-22T11:02:21.060Z,6624
2018-01-22T11:03:31.209Z,6776
2018-01-22T11:04:41.361Z,5760
2018-01-22T11:05:51.470Z,4824
2018-01-22T11:07:01.627Z,4208
2018-01-22T11:08:11.732Z,3664
2018-01-22T11:09:21.872Z,3760
2018-01-22T11:10:32.008Z,3984
2018-01-22T11:11:42.296Z,4116
2018-01-22T11:12:52.496Z,3656
2018-01-22T11:14:02.736Z,3432
2018-01-22T11:15:12.926Z,3848
2018-01-22T11:16:22.805Z,4020
2018-01-22T11:17:32.990Z,3892
2018-01-22T11:18:43.113Z,4112
2018-01-22T11:19:53.286Z,3484
2018-01-22T11:21:02.795Z,3696
2018-01-22T11:22:12.961Z,3392
2018-01-22T11:23:23.073Z,3712
2018-01-22T11:24:33.206Z,3860
2018-01-22T11:25:43.343Z,3796
2018-01-22T11:26:53.544Z,4192
2018-01-22T11:28:03.687Z,4484
2018-01-22T11:29:13.813Z,4524
2018-01-22T11:30:23.961Z,4296
2018-01-22T11:31:34.223Z,4456
2018-01-22T11:32:44.351Z,4800
2018-01-22T11:33:54.493Z,5308
2018-01-22T11:35:04.735Z,5428
2018-01-22T11:36:14.980Z,4680
2018-01-22T11:37:25.133Z,4624
2018-01-22T11:38:35.330Z,4228
2018-01-22T11:39:45.465Z,5040
2018-01-22T11:40:55.589Z,4792
2018-01-22T11:42:05.739Z,4908
2018-01-22T11:43:15.871Z,4644
2018-01-22T11:44:26.023Z,4664
2018-01-22T11:45:36.143Z,5168
2018-01-22T11:46:46.292Z,5136
2018-01-22T11:47:56.429Z,5084
2018-01-22T11:49:06.547Z,4840
2018-01-22T11:50:16.703Z,5116
2018-01-22T11:51:26.885Z,4592
2018-01-22T11:52:37.159Z,4424
2018-01-22T11:53:47.408Z,4500
2018-01-22T11:54:57.607Z,4196
2018-01-22T11:56:07.831Z,3752
2018-01-22T11:57:18.048Z,3640
2018-01-22T11:58:28.243Z,3272
2018-01-22T11:59:38.490Z,3632
2018-01-22T12:00:48.644Z,3388
2018-01-22T12:01:58.826Z,3264
2018-01-22T12:03:09.140Z,3396
2018-01-22T12:04:19.298Z,3292
2018-01-22T12:05:29.595Z,3572
2018-01-22T12:06:39.864Z,3320
2018-01-22T12:07:50.097Z,3296
2018-01-22T12:09:00.401Z,3596
2018-01-22T12:10:10.592Z,4136
2018-01-22T12:11:20.742Z,4448
2018-01-22T12:12:30.881Z,5656
2018-01-22T12:13:40.837Z,6216
2018-01-22T12:14:51.030Z,7588
2018-01-22T12:16:01.179Z,7876
2018-01-22T12:17:11.379Z,8628
2018-01-22T12:18:21.547Z,8840
2018-01-22T12:19:31.703Z,9568
2018-01-22T12:20:41.833Z,10064
2018-01-22T12:21:51.958Z,10380
2018-01-22T12:23:02.105Z,9888
2018-01-22T12:24:12.331Z,10804
2018-01-22T12:25:22.478Z,10040
2018-01-22T12:26:32.597Z,9980
2018-01-22T12:27:42.770Z,9828
2018-01-22T12:28:52.939Z,8740
2018-01-22T12:30:03.069Z,7308
2018-01-22T12:31:13.202Z,5792
2018-01-22T12:32:23.337Z,6032
2018-01-22T12:33:33.469Z,6564
2018-01-22T12:34:43.571Z,5732
2018-01-22T12:35:53.718Z,5512
2018-01-22T12:37:03.560Z,5148
2018-01-22T12:38:13.840Z,4288
2018-01-22T12:39:24.037Z,3920
2018-01-22T12:40:34.195Z,3080
2018-01-22T12:41:44.349Z,3044
2018-01-22T12:42:54.477Z,2720
2018-01-22T12:44:04.622Z,2988
2018-01-22T12:45:14.768Z,3676
2018-01-22T12:46:24.895Z,3268
2018-01-22T12:47:35.076Z,3092
2018-01-22T12:48:45.378Z,2812
2018-01-22T12:49:55.602Z,2780
2018-01-22T12:51:05.750Z,2916
2018-01-22T12:52:15.882Z,2584
2018-01-22T12:53:26.015Z,2372
2018-01-22T12:54:37.189Z,2552
2018-01-22T12:55:47.330Z,2200
2018-01-22T12:56:57.475Z,2092
2018-01-22T12:58:07.705Z,1708
2018-01-22T12:59:17.843Z,1824
2018-01-22T13:00:28.061Z,1532
2018-01-22T13:01:38.040Z,1520
2018-01-22T13:02:48.177Z,1384
2018-01-22T13:03:58.385Z,1328
2018-01-22T13:05:08.522Z,1248
2018-01-22T13:06:18.363Z,1320
2018-01-22T13:07:28.510Z,1288
2018-01-22T13:08:38.692Z,1544
2018-01-22T13:09:48.835Z,2044
2018-01-22T13:10:59.096Z,2448
2018-01-22T13:12:09.230Z,2656
2018-01-22T13:13:19.561Z,3032
2018-01-22T13:14:29.844Z,3132
2018-01-22T13:15:40.029Z,3172
2018-01-22T13:16:50.247Z,3164
2018-01-22T13:18:00.394Z,2936
2018-01-22T13:19:10.668Z,3336
2018-01-22T13:20:20.856Z,3352
2018-01-22T13:21:31.008Z,3304
2018-01-22T13:22:41.256Z,3148
2018-01-22T13:23:52.501Z,2620
2018-01-22T13:25:02.799Z,2508
2018-01-22T13:26:12.937Z,2900
2018-01-22T13:27:23.137Z,2816
2018-01-22T13:28:33.278Z,2736
2018-01-22T13:29:43.658Z,2136
2018-01-22T13:30:53.900Z,2052
2018-01-22T13:32:04.153Z,2132
2018-01-22T13:33:14.328Z,2260
2018-01-22T13:34:24.525Z,2208
2018-01-22T13:35:34.721Z,2020
2018-01-22T13:36:44.882Z,2008
2018-01-22T13:37:55.053Z,1744
2018-01-22T13:39:05.166Z,1880
2018-01-22T13:40:15.311Z,1672
2018-01-22T13:41:25.494Z,1468
2018-01-22T13:42:35.620Z,1304
2018-01-22T13:43:45.755Z,1264
2018-01-22T13:44:56.004Z,1408
2018-01-22T13:46:06.168Z,1456
2018-01-22T13:47:16.285Z,1596
2018-01-22T13:48:26.424Z,1592
2018-01-22T13:49:36.560Z,1348
2018-01-22T13:50:46.697Z,1252
2018-01-22T13:51:56.856Z,1128
2018-01-22T13:53:06.759Z,1248
2018-01-22T13:54:16.965Z,1232
2018-01-22T13:55:27.139Z,1468
2018-01-22T13:56:37.397Z,1784
2018-01-22T13:57:47.534Z,1924
2018-01-22T13:58:57.413Z,1828
2018-01-22T14:00:07.536Z,1400
2018-01-22T14:01:17.667Z,1388
2018-01-22T14:02:27.936Z,1448
2018-01-22T14:03:38.076Z,1492
2018-01-22T14:04:48.288Z,1224
2018-01-22T14:05:58.487Z,988
2018-01-22T14:07:08.851Z,1044
2018-01-22T14:08:19.070Z,976
2018-01-22T14:09:29.201Z,992
2018-01-22T14:10:39.453Z,988
2018-01-22T14:11:49.620Z,1000
2018-01-22T14:12:59.765Z,1116
2018-01-22T14:14:09.841Z,1032
2018-01-22T14:15:19.973Z,920
2018-01-22T14:16:30.155Z,1004
2018-01-22T14:17:40.356Z,972
2018-01-22T14:18:50.516Z,896
2018-01-22T14:20:00.662Z,824
2018-01-22T14:21:10.842Z,712
2018-01-22T14:22:21.162Z,764
2018-01-22T14:23:31.365Z,796
2018-01-22T14:24:41.168Z,696
2018-01-22T14:25:51.294Z,712
2018-01-22T14:27:01.539Z,632
2018-01-22T14:28:11.428Z,548
2018-01-22T14:29:21.677Z,572
2018-01-22T14:30:31.816Z,648
2018-01-22T14:31:41.938Z,676
2018-01-22T14:32:52.057Z,652
2018-01-22T14:34:02.185Z,712
2018-01-22T14:35:12.311Z,904
2018-01-22T14:36:22.478Z,836
2018-01-22T14:37:32.661Z,884
2018-01-22T14:38:42.799Z,816
2018-01-22T14:39:52.969Z,876
2018-01-22T14:41:03.215Z,1008
2018-01-22T14:42:13.450Z,1056
2018-01-22T14:43:23.597Z,976
2018-01-22T14:44:33.785Z,920
2018-01-22T14:45:43.926Z,904
2018-01-22T14:46:54.068Z,896
2018-01-22T14:48:04.241Z,860
2018-01-22T14:49:14.400Z,780
2018-01-22T14:50:24.618Z,792
2018-01-22T14:51:34.855Z,784
2018-01-22T14:52:44.976Z,700
2018-01-22T14:53:55.219Z,692
2018-01-22T14:55:05.399Z,668
2018-01-22T14:56:15.591Z,564
2018-01-22T14:57:25.769Z,516
2018-01-22T14:58:35.930Z,480
2018-01-22T14:59:46.066Z,472
2018-01-22T15:00:56.210Z,440
2018-01-22T15:02:06.388Z,476
2018-01-22T15:03:16.582Z,452
2018-01-22T15:04:26.896Z,400
2018-01-22T15:05:37.097Z,432
2018-01-22T15:06:47.250Z,408
2018-01-22T15:07:57.410Z,356
2018-01-22T15:09:08.575Z,324
2018-01-22T15:10:18.742Z,356
2018-01-22T15:11:29.001Z,336
2018-01-22T15:12:39.239Z,312
2018-01-22T15:13:49.245Z,300
2018-01-22T15:14:59.353Z,288
2018-01-22T15:16:09.488Z,272
2018-01-22T15:17:19.359Z,256
2018-01-22T15:18:29.508Z,248
2018-01-22T15:19:39.856Z,232
2018-01-22T15:20:49.975Z,216
2018-01-22T15:22:00.087Z,244
2018-01-22T15:23:10.370Z,208
2018-01-22T15:24:20.516Z,216
2018-01-22T15:25:30.695Z,192
2018-01-22T15:26:40.863Z,160
2018-01-22T15:27:51.162Z,152
2018-01-22T15:29:01.135Z,152
2018-01-22T15:30:11.295Z,144
2018-01-22T15:31:21.460Z,124
2018-01-22T15:32:31.593Z,136
2018-01-22T15:33:41.781Z,136
2018-01-22T15:34:51.957Z,120
2018-01-22T15:36:02.108Z,112
2018-01-22T15:37:12.263Z,104
2018-01-22T15:38:22.398Z,104
2018-01-22T15:39:32.578Z,104
2018-01-22T15:40:42.838Z,100
2018-01-22T15:41:53.000Z,92
2018-01-22T15:43:03.167Z,92
2018-01-22T15:44:13.326Z,88
2018-01-22T15:45:23.627Z,80
2018-01-22T15:46:33.787Z,68
2018-01-22T15:47:44.089Z,60
2018-01-22T15:48:54.220Z,48
2018-01-22T15:50:04.497Z,44
2018-01-22T15:51:14.678Z,40
2018-01-22T15:52:24.835Z,32
2018-01-22T15:53:34.850Z,24
2018-01-22T15:54:44.970Z,20
2018-01-22T15:55:55.149Z,16
2018-01-22T15:57:05.293Z,20
2018-01-22T15:58:15.508Z,16
2018-01-22T15:59:25.751Z,12
2018-01-22T16:00:35.933Z,12
2018-01-22T16:01:46.145Z,8
2018-01-22T16:02:56.304Z,8
2018-01-22T16:04:06.466Z,8
2018-01-22T16:05:16.606Z,4
2018-01-22T16:06:26.734Z,4
2018-01-22T16:07:36.947Z,0
2018-01-22T16:08:47.153Z,4
2018-01-22T16:09:56.857Z,4
2018-01-22T16:11:07.088Z,4
2018-01-22T16:12:17.307Z,4
2018-01-22T16:13:27.508Z,0
2018-01-22T16:14:37.672Z,4
2018-01-22T16:15:47.902Z,0
2018-01-22T16:16:58.084Z,0
2018-01-22T16:18:08.246Z,0
2018-01-22T16:19:18.406Z,0
2018-01-22T16:20:28.210Z,0
2018-01-22T16:21:38.394Z,0
2018-01-22T16:22:48.652Z,0
2018-01-22T16:23:58.840Z,0
2018-01-22T16:25:08.809Z,0